Maunaloa, Hawaii
Current Conditions -  °F | °C
As of 8:54 PM on Saturday 22 Nov 2014 (Local Time) from PHMK Reporting Station
Clear Clear  
Wind Chill: 72°   Ceiling: Unl
Heat Index: 72°   Visibility: 10mi
Dew Point: 65°   Wind: 3mph
Humidity: 78%   Direction: 20°NNE
Pressure: 30.06"   Gusts: NA
Location:  21.13°N, 157.21°W
Report Text: PHMK 230654Z AUTO 02003KT 10SM CLR 22/18 A3006 RMK AO2 SLP180 T02220183 TSNO
Loading
Personal Weather Stations






























Interactive Weather Map New forecast layout! Learn more

10-Day Weather Forecast

Advertisements
Track Severe Weather on mobile